createdAt,value
2022-11-14T00:01:07.194Z,13.15
2022-11-14T00:03:33.723Z,17.45
2022-11-14T00:06:00.293Z,15.63
2022-11-14T00:08:29.481Z,14.50
2022-11-14T00:10:56.448Z,15.32
2022-11-14T00:13:22.948Z,14.07
2022-11-14T00:15:58.459Z,12.70
2022-11-14T00:18:27.905Z,11.75
2022-11-14T00:20:54.635Z,12.93
2022-11-14T00:23:21.924Z,13.00
2022-11-14T00:25:49.174Z,12.40
2022-11-14T00:28:16.131Z,13.00
2022-11-14T00:30:52.003Z,12.85
2022-11-14T00:33:20.718Z,11.77
2022-11-14T00:35:52.392Z,13.68
2022-11-14T00:38:18.889Z,12.23
2022-11-14T00:40:45.694Z,13.70
2022-11-14T00:43:14.382Z,10.90
2022-11-14T00:45:44.305Z,12.13
2022-11-14T00:48:14.171Z,12.43
2022-11-14T00:50:41.465Z,10.20
2022-11-14T00:53:08.039Z,11.45
2022-11-14T00:55:36.788Z,15.20
2022-11-14T00:58:03.768Z,11.13
2022-11-14T01:00:30.329Z,13.98
2022-11-14T01:02:58.293Z,10.80
2022-11-14T01:05:25.769Z,12.35
2022-11-14T01:07:52.615Z,11.97
2022-11-14T01:10:19.894Z,13.20
2022-11-14T01:12:46.903Z,11.48
2022-11-14T01:15:16.003Z,11.23
2022-11-14T01:17:42.570Z,14.03
2022-11-14T01:20:09.190Z,11.37
2022-11-14T01:22:35.698Z,12.25
2022-11-14T01:25:02.235Z,12.50
2022-11-14T01:27:31.511Z,11.77
2022-11-14T01:30:00.269Z,13.53
2022-11-14T01:32:27.620Z,13.63
2022-11-14T01:34:54.461Z,13.80
2022-11-14T01:37:20.990Z,12.23
2022-11-14T01:39:47.476Z,11.73
2022-11-14T01:42:14.005Z,12.63
2022-11-14T01:44:52.407Z,13.57
2022-11-14T01:47:26.244Z,12.07
2022-11-14T01:50:02.062Z,11.70
2022-11-14T01:52:35.114Z,13.10
2022-11-14T01:55:07.152Z,11.93
2022-11-14T01:57:44.138Z,11.97
2022-11-14T02:00:12.332Z,14.33
2022-11-14T02:02:40.134Z,11.97
2022-11-14T02:05:10.478Z,13.13
2022-11-14T02:07:40.322Z,12.97
2022-11-14T02:10:10.883Z,13.10
2022-11-14T02:12:38.270Z,12.83
2022-11-14T02:15:05.202Z,12.80
2022-11-14T02:17:32.813Z,16.37
2022-11-14T02:20:08.239Z,13.87
2022-11-14T02:22:34.768Z,15.90
2022-11-14T02:25:01.670Z,14.43
2022-11-14T02:27:29.199Z,11.80
2022-11-14T02:30:04.310Z,13.73
2022-11-14T02:32:45.046Z,15.40
2022-11-14T02:35:17.386Z,15.03
2022-11-14T02:37:43.895Z,16.33
2022-11-14T02:40:11.126Z,14.27
2022-11-14T02:42:37.890Z,14.60
2022-11-14T02:45:05.288Z,13.80
2022-11-14T02:47:34.107Z,14.40
2022-11-14T02:50:02.958Z,13.67
2022-11-14T02:52:29.487Z,17.30
2022-11-14T02:54:56.007Z,14.03
2022-11-14T02:57:27.134Z,12.93
2022-11-14T02:59:53.629Z,14.50
2022-11-14T03:02:20.143Z,12.90
2022-11-14T03:04:46.711Z,15.07
2022-11-14T03:07:13.325Z,11.73
2022-11-14T03:09:39.937Z,15.57
2022-11-14T03:12:06.543Z,15.77
2022-11-14T03:14:33.059Z,15.13
2022-11-14T03:17:02.026Z,12.00
2022-11-14T03:19:28.526Z,13.77
2022-11-14T03:21:55.009Z,12.80
2022-11-14T03:24:24.073Z,15.07
2022-11-14T03:26:50.571Z,14.47
2022-11-14T03:29:17.109Z,14.67
2022-11-14T03:31:43.678Z,16.47
2022-11-14T03:34:12.914Z,16.03
2022-11-14T03:36:39.458Z,16.13
2022-11-14T03:39:09.238Z,18.50
2022-11-14T03:41:36.008Z,16.17
2022-11-14T03:44:02.545Z,14.90
2022-11-14T03:46:31.603Z,17.17
2022-11-14T03:48:58.071Z,15.00
2022-11-14T03:51:24.562Z,18.97
2022-11-14T03:53:51.071Z,14.90
2022-11-14T03:56:17.600Z,17.87
2022-11-14T03:58:46.659Z,20.30
2022-11-14T04:01:13.391Z,15.87
2022-11-14T04:03:39.907Z,19.50
2022-11-14T04:06:06.490Z,16.93
2022-11-14T04:08:35.800Z,15.97
2022-11-14T04:11:04.826Z,18.43
2022-11-14T04:13:33.647Z,20.13
2022-11-14T04:16:02.464Z,17.63
2022-11-14T04:18:29.453Z,18.00
2022-11-14T04:20:56.351Z,17.30
2022-11-14T04:23:23.247Z,17.43
2022-11-14T04:25:49.738Z,19.97
2022-11-14T04:28:16.304Z,19.17
2022-11-14T04:30:42.839Z,24.50
2022-11-14T04:33:09.370Z,21.03
2022-11-14T04:35:35.874Z,16.90
2022-11-14T04:38:07.262Z,18.77
2022-11-14T04:40:33.824Z,24.87
2022-11-14T04:43:00.322Z,21.50
2022-11-14T04:45:26.936Z,17.33
2022-11-14T04:47:53.549Z,19.03
2022-11-14T04:50:20.423Z,19.93
2022-11-14T04:52:49.159Z,20.40
2022-11-14T04:55:15.668Z,19.47
2022-11-14T04:57:42.178Z,21.17
2022-11-14T05:00:09.486Z,17.97
2022-11-14T05:02:35.963Z,17.93
2022-11-14T05:05:02.511Z,18.37
2022-11-14T05:07:31.739Z,24.53
2022-11-14T05:10:00.580Z,19.87
2022-11-14T05:12:27.125Z,19.50
2022-11-14T05:14:53.625Z,20.23
2022-11-14T05:17:20.125Z,20.57
2022-11-14T05:19:46.640Z,24.03
2022-11-14T05:22:15.468Z,24.73
2022-11-14T05:24:42.042Z,22.03
2022-11-14T05:27:08.519Z,24.63
2022-11-14T05:29:37.493Z,22.43
2022-11-14T05:32:04.195Z,21.33
2022-11-14T05:34:30.728Z,25.43
2022-11-14T05:36:59.696Z,21.60
2022-11-14T05:39:26.183Z,26.83
2022-11-14T05:41:52.652Z,26.00
2022-11-14T05:44:21.538Z,20.27
2022-11-14T05:46:48.071Z,21.20
2022-11-14T05:49:19.212Z,19.93
2022-11-14T05:51:50.498Z,23.10
2022-11-14T05:54:17.012Z,24.43
2022-11-14T05:56:46.070Z,22.80
2022-11-14T05:59:12.550Z,20.33
2022-11-14T06:01:41.727Z,24.53
2022-11-14T06:04:08.277Z,24.53
2022-11-14T06:06:37.043Z,22.70
2022-11-14T06:09:03.600Z,25.13
2022-11-14T06:11:30.068Z,21.33
2022-11-14T06:13:56.626Z,23.03
2022-11-14T06:16:23.301Z,20.23
2022-11-14T06:18:53.189Z,24.73
2022-11-14T06:21:21.731Z,25.00
2022-11-14T06:23:48.871Z,23.43
2022-11-14T06:26:22.897Z,22.27
2022-11-14T06:28:50.792Z,22.40
2022-11-14T06:31:18.792Z,21.80
2022-11-14T06:33:45.883Z,24.13
2022-11-14T06:36:13.068Z,20.33
2022-11-14T06:38:41.144Z,25.70
2022-11-14T06:41:10.364Z,25.20
2022-11-14T06:43:41.633Z,25.17
2022-11-14T06:46:10.559Z,28.60
2022-11-14T06:48:37.446Z,28.47
2022-11-14T06:51:05.292Z,23.33
2022-11-14T06:53:34.447Z,21.17
2022-11-14T06:56:06.969Z,21.47
2022-11-14T06:58:36.133Z,22.40
2022-11-14T07:01:08.839Z,32.83
2022-11-14T07:03:35.365Z,26.57
2022-11-14T07:06:02.797Z,22.67
2022-11-14T07:08:29.784Z,23.53
2022-11-14T07:11:07.698Z,28.30
2022-11-14T07:13:35.138Z,24.60
2022-11-14T07:16:02.615Z,24.00
2022-11-14T07:18:33.933Z,22.50
2022-11-14T07:21:03.999Z,23.83
2022-11-14T07:23:34.763Z,24.90
2022-11-14T07:26:07.128Z,24.67
2022-11-14T07:28:39.670Z,19.60
2022-11-14T07:31:07.912Z,19.23
2022-11-14T07:33:35.077Z,22.93
2022-11-14T07:36:01.972Z,24.03
2022-11-14T07:38:30.639Z,20.93
2022-11-14T07:41:04.352Z,17.97
2022-11-14T07:43:31.297Z,18.83
2022-11-14T07:46:02.569Z,20.47
2022-11-14T07:48:32.421Z,23.33
2022-11-14T07:51:03.454Z,28.83
2022-11-14T07:53:30.578Z,29.30
2022-11-14T07:56:02.380Z,32.07
2022-11-14T07:58:29.371Z,36.53
2022-11-14T08:00:56.302Z,28.53
2022-11-14T08:03:22.868Z,27.90
2022-11-14T08:05:49.388Z,23.07
2022-11-14T08:08:15.872Z,19.53
2022-11-14T08:10:42.494Z,22.70
2022-11-14T08:13:30.905Z,24.70
2022-11-14T08:15:57.745Z,21.57
2022-11-14T08:18:24.309Z,22.93
2022-11-14T08:20:50.876Z,19.40
2022-11-14T08:23:17.378Z,21.50
2022-11-14T08:25:46.257Z,20.83
2022-11-14T08:28:12.750Z,20.03
2022-11-14T08:30:39.330Z,22.70
2022-11-14T08:33:07.046Z,17.93
2022-11-14T08:35:33.818Z,20.10
2022-11-14T08:38:03.486Z,17.80
2022-11-14T08:40:30.562Z,20.13
2022-11-14T08:43:03.497Z,20.93
2022-11-14T08:45:30.581Z,18.47
2022-11-14T08:47:57.168Z,15.80
2022-11-14T08:50:23.966Z,24.63
2022-11-14T08:52:53.079Z,17.90
2022-11-14T08:55:20.808Z,20.10
2022-11-14T08:57:53.073Z,18.07
2022-11-14T09:00:19.952Z,17.00
2022-11-14T09:02:47.095Z,18.70
2022-11-14T09:05:17.082Z,17.57
2022-11-14T09:07:43.586Z,20.57
2022-11-14T09:10:10.325Z,20.50
2022-11-14T09:12:39.223Z,20.70
2022-11-14T09:15:06.659Z,19.80
2022-11-14T09:17:33.213Z,20.98
2022-11-14T09:19:59.802Z,18.05
2022-11-14T09:22:26.347Z,20.40
2022-11-14T09:24:53.024Z,18.83
2022-11-14T09:27:21.829Z,15.77
2022-11-14T09:29:48.409Z,16.55
2022-11-14T09:32:14.914Z,17.75
2022-11-14T09:34:45.633Z,15.60
2022-11-14T09:37:12.195Z,13.73
2022-11-14T09:39:40.669Z,15.52
2022-11-14T09:42:40.537Z,18.13
2022-11-14T09:45:18.538Z,17.40
2022-11-14T09:47:53.015Z,16.33
2022-11-14T09:50:32.927Z,16.27
2022-11-14T09:53:05.567Z,14.25
2022-11-14T09:55:37.084Z,14.32
2022-11-14T09:58:05.201Z,15.50
2022-11-14T10:01:03.758Z,13.73
2022-11-14T10:03:54.527Z,17.95
2022-11-14T10:06:35.531Z,16.63
2022-11-14T10:09:49.835Z,15.98
2022-11-14T10:12:38.305Z,17.90
2022-11-14T10:15:31.081Z,14.02
2022-11-14T10:18:12.191Z,18.85
2022-11-14T10:20:46.277Z,13.50
2022-11-14T10:23:25.232Z,14.65
2022-11-14T10:26:16.548Z,15.90
2022-11-14T10:29:06.101Z,16.48
2022-11-14T10:32:11.258Z,21.25
2022-11-14T10:35:02.468Z,17.55
2022-11-14T10:37:37.847Z,20.67
2022-11-14T10:40:24.300Z,20.83
2022-11-14T10:43:00.722Z,21.40
2022-11-14T10:45:34.729Z,16.80
2022-11-14T10:48:13.163Z,19.10
2022-11-14T10:50:52.784Z,18.80
2022-11-14T10:53:31.568Z,18.13
2022-11-14T10:56:04.186Z,20.88
2022-11-14T10:58:42.029Z,18.27
2022-11-14T11:01:43.715Z,20.83
2022-11-14T11:04:27.673Z,19.70
2022-11-14T11:07:00.549Z,19.42
2022-11-14T11:09:47.449Z,26.00
2022-11-14T11:12:19.970Z,29.75
2022-11-14T11:14:48.442Z,28.20
2022-11-14T11:17:18.465Z,24.13
2022-11-14T11:19:47.340Z,23.48
2022-11-14T11:22:46.829Z,21.45
2022-11-14T11:25:28.175Z,21.23
2022-11-14T11:28:12.680Z,20.38
2022-11-14T11:30:39.670Z,22.08
2022-11-14T11:33:21.408Z,22.55
2022-11-14T11:35:50.730Z,20.13
2022-11-14T11:38:20.240Z,20.80
2022-11-14T11:40:51.369Z,21.08
2022-11-14T11:43:53.907Z,20.80
2022-11-14T11:46:46.850Z,22.45
2022-11-14T11:49:34.049Z,23.95
2022-11-14T11:52:39.835Z,22.90
2022-11-14T11:55:22.149Z,25.38
2022-11-14T11:58:03.426Z,22.20
2022-11-14T12:00:31.991Z,23.08
2022-11-14T12:03:04.168Z,21.98
2022-11-14T12:05:38.185Z,24.55
2022-11-14T12:08:15.998Z,25.10
2022-11-14T12:12:24.057Z,27.60
2022-11-14T12:14:07.898Z,28.27
2022-11-14T12:16:59.751Z,30.27
2022-11-14T12:19:55.119Z,28.20
2022-11-14T12:22:53.556Z,35.13
2022-11-14T12:25:38.883Z,32.17
2022-11-14T12:28:24.104Z,35.05
2022-11-14T12:30:58.662Z,30.25
2022-11-14T12:33:40.683Z,32.47
2022-11-14T12:36:14.464Z,36.35
2022-11-14T12:38:54.638Z,33.58
2022-11-14T12:41:30.985Z,34.88
2022-11-14T12:44:32.474Z,33.72
2022-11-14T12:47:19.070Z,34.00
2022-11-14T12:49:54.717Z,29.90
2022-11-14T12:52:56.011Z,33.08
2022-11-14T12:55:26.855Z,38.40
2022-11-14T12:58:19.744Z,33.67
2022-11-14T13:00:47.003Z,31.77
2022-11-14T13:03:17.422Z,30.92
2022-11-14T13:06:05.283Z,28.65
2022-11-14T13:09:07.974Z,28.50
2022-11-14T13:12:06.161Z,30.30
2022-11-14T13:15:08.511Z,30.08
2022-11-14T13:18:15.547Z,29.35
2022-11-14T13:21:01.347Z,29.05
2022-11-14T13:23:28.231Z,31.65
2022-11-14T13:26:21.482Z,27.60
2022-11-14T13:28:52.501Z,32.25
2022-11-14T13:31:26.504Z,30.80
2022-11-14T13:34:00.908Z,28.70
2022-11-14T13:36:59.064Z,28.65
2022-11-14T13:39:51.852Z,31.33
2022-11-14T13:42:54.871Z,30.88
2022-11-14T13:45:31.647Z,26.80
2022-11-14T13:48:23.554Z,28.77
2022-11-14T13:50:55.889Z,27.33
2022-11-14T13:53:27.590Z,31.48
2022-11-14T13:56:05.218Z,30.60
2022-11-14T13:59:05.148Z,27.70
2022-11-14T14:02:02.377Z,26.90
2022-11-14T14:04:38.688Z,32.40
2022-11-14T14:07:30.105Z,27.90
2022-11-14T14:10:24.284Z,35.25
2022-11-14T14:13:15.053Z,27.73
2022-11-14T14:16:07.705Z,31.23
2022-11-14T14:18:45.388Z,30.92
2022-11-14T14:21:31.801Z,30.48
2022-11-14T14:24:18.958Z,29.88
2022-11-14T14:26:56.761Z,30.95
2022-11-14T14:29:30.824Z,28.98
2022-11-14T14:32:11.403Z,30.02
2022-11-14T14:34:39.602Z,30.58
2022-11-14T14:37:25.677Z,28.30
2022-11-14T14:40:02.815Z,27.17
2022-11-14T14:42:41.090Z,30.98
2022-11-14T14:45:20.017Z,31.15
2022-11-14T14:47:58.665Z,28.80
2022-11-14T14:50:31.320Z,30.83
2022-11-14T14:53:02.515Z,31.67
2022-11-14T14:55:37.511Z,31.27
2022-11-14T14:58:36.237Z,30.00
2022-11-14T15:01:34.144Z,32.50
2022-11-14T15:04:11.868Z,34.25
2022-11-14T15:06:39.694Z,38.97
2022-11-14T15:09:20.847Z,37.60
2022-11-14T15:11:51.052Z,33.60
2022-11-14T15:14:24.766Z,33.55
2022-11-14T15:16:55.741Z,36.80
2022-11-14T15:19:31.760Z,35.17
2022-11-14T15:22:05.302Z,32.42
2022-11-14T15:24:32.119Z,33.80
2022-11-14T15:26:58.726Z,33.97
2022-11-14T15:29:28.313Z,38.80
2022-11-14T15:32:01.046Z,35.40
2022-11-14T15:34:35.783Z,36.97
2022-11-14T15:37:14.393Z,37.45
2022-11-14T15:39:41.343Z,35.15
2022-11-14T15:42:28.165Z,39.28
2022-11-14T15:44:56.999Z,37.28
2022-11-14T15:47:39.021Z,34.28
2022-11-14T15:50:25.564Z,38.55
2022-11-14T15:53:23.215Z,29.85
2022-11-14T15:55:50.418Z,37.58
2022-11-14T15:58:33.058Z,32.35
2022-11-14T16:01:04.539Z,33.05
2022-11-14T16:03:31.568Z,29.83
2022-11-14T16:05:58.350Z,31.77
2022-11-14T16:08:24.995Z,31.20
2022-11-14T16:10:51.704Z,29.48
2022-11-14T16:13:18.242Z,32.03
2022-11-14T16:15:47.310Z,31.83
2022-11-14T16:18:14.408Z,25.63
2022-11-14T16:20:41.785Z,26.73
2022-11-14T16:23:13.729Z,24.25
2022-11-14T16:25:40.429Z,26.90
2022-11-14T16:28:06.976Z,26.60
2022-11-14T16:30:34.357Z,30.33
2022-11-14T16:33:01.075Z,30.15
2022-11-14T16:35:28.161Z,26.60
2022-11-14T16:37:55.506Z,25.40
2022-11-14T16:40:27.905Z,25.92
2022-11-14T16:42:56.173Z,25.48
2022-11-14T16:45:23.740Z,26.05
2022-11-14T16:47:50.695Z,23.65
2022-11-14T16:50:18.903Z,24.63
2022-11-14T16:52:48.550Z,25.10
2022-11-14T16:55:15.147Z,32.38
2022-11-14T16:57:41.840Z,29.92
2022-11-14T17:00:12.362Z,28.40
2022-11-14T17:02:45.624Z,25.75
2022-11-14T17:05:14.480Z,31.20
2022-11-14T17:07:41.020Z,27.40
2022-11-14T17:10:08.002Z,27.90
2022-11-14T17:12:34.605Z,26.55
2022-11-14T17:15:01.175Z,29.23
2022-11-14T17:17:30.773Z,25.20
2022-11-14T17:19:57.409Z,22.90
2022-11-14T17:22:24.592Z,22.65
2022-11-14T17:24:53.618Z,24.00
2022-11-14T17:27:20.203Z,23.95
2022-11-14T17:29:46.827Z,20.30
2022-11-14T17:32:13.355Z,17.38
2022-11-14T17:34:39.913Z,19.75
2022-11-14T17:37:06.429Z,17.73
2022-11-14T17:39:35.094Z,16.45
2022-11-14T17:42:01.735Z,17.52
2022-11-14T17:44:28.232Z,18.73
2022-11-14T17:46:55.931Z,21.60
2022-11-14T17:49:25.497Z,18.30
2022-11-14T17:51:52.084Z,19.50
2022-11-14T17:54:18.668Z,18.30
2022-11-14T17:56:49.685Z,19.38
2022-11-14T17:59:20.433Z,19.33
2022-11-14T18:01:47.518Z,15.80
2022-11-14T18:04:14.046Z,16.83
2022-11-14T18:06:42.792Z,15.93
2022-11-14T18:09:14.034Z,14.15
2022-11-14T18:11:41.214Z,16.90
2022-11-14T18:14:07.923Z,14.35
2022-11-14T18:17:05.523Z,15.95
2022-11-14T18:19:23.274Z,18.08
2022-11-14T18:21:53.914Z,19.05
2022-11-14T18:24:21.661Z,15.40
2022-11-14T18:26:48.303Z,15.18
2022-11-14T18:29:18.014Z,14.43
2022-11-14T18:31:44.576Z,15.68
2022-11-14T18:34:11.142Z,18.40
2022-11-14T18:36:37.671Z,19.48
2022-11-14T18:39:04.298Z,17.08
2022-11-14T18:41:30.884Z,16.75
2022-11-14T18:44:02.439Z,16.60
2022-11-14T18:46:34.395Z,16.92
2022-11-14T18:49:03.646Z,19.15
2022-11-14T18:51:30.890Z,17.52
2022-11-14T18:53:59.296Z,17.30
2022-11-14T18:56:28.499Z,16.98
2022-11-14T18:58:58.741Z,15.65
2022-11-14T19:01:29.274Z,16.70
2022-11-14T19:04:01.297Z,17.77
2022-11-14T19:06:29.678Z,16.70
2022-11-14T19:09:02.741Z,16.58
2022-11-14T19:11:49.689Z,19.23
2022-11-14T19:14:16.911Z,14.95
2022-11-14T19:16:47.113Z,15.77
2022-11-14T19:19:13.944Z,15.05
2022-11-14T19:21:41.392Z,17.17
2022-11-14T19:24:10.749Z,15.20
2022-11-14T19:26:37.426Z,14.65
2022-11-14T19:29:10.460Z,15.65
2022-11-14T19:31:39.093Z,13.93
2022-11-14T19:34:06.250Z,13.75
2022-11-14T19:36:58.219Z,15.68
2022-11-14T19:39:21.826Z,15.15
2022-11-14T19:41:48.474Z,14.25
2022-11-14T19:44:17.348Z,14.00
2022-11-14T19:46:47.554Z,16.33
2022-11-14T19:49:14.476Z,18.42
2022-11-14T19:51:41.022Z,14.07
2022-11-14T19:54:11.140Z,15.57
2022-11-14T19:56:38.158Z,13.95
2022-11-14T19:59:09.554Z,15.10
2022-11-14T20:01:42.160Z,15.43
2022-11-14T20:04:12.204Z,16.52
2022-11-14T20:06:38.876Z,20.25
2022-11-14T20:09:10.685Z,16.42
2022-11-14T20:11:37.395Z,17.88
2022-11-14T20:14:05.636Z,18.25
2022-11-14T20:16:34.509Z,19.10
2022-11-14T20:19:01.680Z,17.10
2022-11-14T20:21:32.029Z,17.77
2022-11-14T20:23:59.304Z,19.45
2022-11-14T20:26:26.183Z,18.02
2022-11-14T20:28:53.999Z,17.80
2022-11-14T20:31:30.767Z,17.88
2022-11-14T20:33:57.378Z,17.70
2022-11-14T20:36:26.092Z,18.13
2022-11-14T20:38:53.828Z,16.85
2022-11-14T20:41:21.370Z,22.20
2022-11-14T20:43:48.218Z,16.67
2022-11-14T20:46:20.148Z,19.15
2022-11-14T20:48:49.373Z,21.05
2022-11-14T20:51:22.074Z,19.23
2022-11-14T20:53:50.669Z,22.35
2022-11-14T20:56:17.977Z,22.55
2022-11-14T20:58:46.590Z,20.23
2022-11-14T21:01:14.533Z,20.80
2022-11-14T21:03:43.761Z,21.67
2022-11-14T21:06:12.927Z,21.67
2022-11-14T21:08:40.140Z,19.95
2022-11-14T21:11:11.096Z,19.20
2022-11-14T21:13:59.045Z,20.10
2022-11-14T21:16:34.620Z,20.75
2022-11-14T21:19:04.697Z,20.42
2022-11-14T21:21:34.574Z,24.58
2022-11-14T21:24:01.096Z,19.40
2022-11-14T21:26:33.212Z,24.00
2022-11-14T21:29:02.139Z,23.10
2022-11-14T21:31:33.969Z,20.15
2022-11-14T21:34:05.982Z,19.15
2022-11-14T21:36:48.193Z,21.17
2022-11-14T21:39:16.370Z,21.23
2022-11-14T21:41:44.484Z,21.13
2022-11-14T21:44:13.553Z,23.25
2022-11-14T21:46:48.537Z,22.98
2022-11-14T21:49:15.155Z,20.73
2022-11-14T21:51:41.717Z,22.38
2022-11-14T21:54:09.389Z,23.80
2022-11-14T21:56:37.295Z,24.83
2022-11-14T21:59:15.594Z,21.33
2022-11-14T22:02:03.682Z,21.73
2022-11-14T22:04:31.502Z,22.58
2022-11-14T22:06:59.137Z,21.13
2022-11-14T22:09:29.069Z,21.08
2022-11-14T22:11:56.399Z,25.00
2022-11-14T22:14:23.249Z,20.70
2022-11-14T22:16:50.128Z,19.38
2022-11-14T22:19:16.704Z,27.73
2022-11-14T22:21:43.255Z,23.95
2022-11-14T22:24:09.769Z,21.40
2022-11-14T22:26:39.848Z,25.90
2022-11-14T22:29:07.915Z,26.02
2022-11-14T22:31:34.731Z,25.48
2022-11-14T22:34:03.530Z,28.95
2022-11-14T22:36:30.016Z,26.42
2022-11-14T22:39:01.419Z,29.25
2022-11-14T22:41:32.597Z,27.58
2022-11-14T22:44:00.193Z,28.25
2022-11-14T22:46:27.604Z,24.20
2022-11-14T22:48:54.822Z,30.13
2022-11-14T22:51:30.440Z,27.25
2022-11-14T22:53:58.024Z,35.10
2022-11-14T22:56:29.023Z,26.10
2022-11-14T22:58:56.327Z,24.98
2022-11-14T23:01:31.479Z,30.05
2022-11-14T23:04:00.575Z,34.58
2022-11-14T23:06:28.344Z,30.35
2022-11-14T23:08:55.192Z,27.23
2022-11-14T23:11:25.929Z,36.90
2022-11-14T23:13:55.192Z,26.98
2022-11-14T23:16:26.993Z,28.95
2022-11-14T23:18:58.086Z,27.88
2022-11-14T23:21:28.067Z,35.67
2022-11-14T23:24:06.492Z,29.15
2022-11-14T23:26:33.943Z,32.10
2022-11-14T23:29:00.946Z,31.48
2022-11-14T23:31:27.506Z,32.15
2022-11-14T23:33:55.684Z,31.08
2022-11-14T23:36:24.605Z,35.50
2022-11-14T23:38:54.618Z,30.45
2022-11-14T23:41:27.924Z,30.38
2022-11-14T23:43:54.531Z,28.17
2022-11-14T23:46:21.198Z,28.95
2022-11-14T23:48:50.855Z,32.03
2022-11-14T23:51:17.613Z,36.70
2022-11-14T23:53:44.415Z,33.03
2022-11-14T23:56:13.250Z,36.08
2022-11-14T23:58:40.521Z,30.75
